Time;durP1;ratioP1;P1;durP2;ratioP2;P2;SDS_P1;SDS_P2;PMS_P1;PMS_P2;Temp;Humidity;BMP_temperature;BMP_pressure;BME280_temperature;BME280_humidity;BME280_pressure;Samples;Min_cycle;Max_cycle;Signal;HPM_P1;HPM_P2
2022/05/20 00:03:54;;;;;;;27.10;8.40;;;;;;;16.17;45.86;99516.37;232722;1222;138751;-66
2022/05/20 00:09:01;;;;;;;27.40;8.40;;;;;;;16.08;46.07;99510.23;233342;1221;139366;-66
2022/05/20 00:14:10;;;;;;;35.60;9.20;;;;;;;16.01;46.30;99502.89;233007;1221;139122;-66
2022/05/20 00:19:23;;;;;;;28.80;8.60;;;;;;;15.91;46.44;99504.41;233113;1222;139007;-65
2022/05/20 00:25:45;;;;;;;27.60;8.20;;;;;;;15.81;46.66;99511.23;233305;1221;139337;-65
2022/05/20 00:30:12;;;;;;;21.70;7.90;;;;;;;15.71;46.86;99506.06;232992;1221;138958;-65
2022/05/20 00:35:26;;;;;;;21.40;7.60;;;;;;;15.62;46.96;99497.07;232624;1222;141255;-65
2022/05/20 00:40:38;;;;;;;20.50;7.70;;;;;;;15.53;47.16;99499.33;232927;1223;139103;-65
2022/05/20 00:45:48;;;;;;;28.70;7.70;;;;;;;15.45;47.30;99499.64;231847;1222;138427;-65
2022/05/20 00:51:17;;;;;;;23.60;8.00;;;;;;;15.36;47.54;99498.41;230637;1222;138640;-65
2022/05/20 00:57:01;;;;;;;21.40;7.60;;;;;;;15.27;47.59;99496.11;232930;1221;138724;-64
2022/05/20 01:02:27;;;;;;;20.40;7.60;;;;;;;15.19;47.97;99487.77;233558;1212;138547;31
2022/05/20 01:07:34;;;;;;;17.50;7.40;;;;;;;15.15;48.00;99476.80;232100;1223;138732;-62
2022/05/20 01:12:42;;;;;;;18.30;7.10;;;;;;;15.08;47.98;99467.69;232973;1222;139063;-66
2022/05/20 01:18:00;;;;;;;14.30;6.50;;;;;;;15.00;48.07;99473.25;232627;1223;139197;-65
2022/05/20 01:23:31;;;;;;;16.50;6.90;;;;;;;14.92;48.26;99483.29;232780;1223;138336;-66
2022/05/20 01:28:42;;;;;;;20.00;6.80;;;;;;;14.84;48.47;99487.08;232693;1223;138232;-67
2022/05/20 01:34:15;;;;;;;15.30;6.90;;;;;;;14.74;48.46;99483.86;232417;1221;138911;-66
2022/05/20 01:39:24;;;;;;;15.30;6.80;;;;;;;14.63;48.67;99477.55;232614;1223;138359;-67
2022/05/20 01:44:56;;;;;;;19.60;7.30;;;;;;;14.55;48.72;99475.08;232641;1223;138678;-67
2022/05/20 01:50:27;;;;;;;15.30;7.00;;;;;;;14.51;48.98;99467.48;232745;1223;138621;-63
2022/05/20 01:55:40;;;;;;;12.70;6.70;;;;;;;14.44;48.99;99464.39;232946;1223;138859;-62
2022/05/20 02:00:48;;;;;;;20.00;7.40;;;;;;;14.43;49.14;99466.95;232945;1223;139691;-64
2022/05/20 02:06:19;;;;;;;16.50;6.90;;;;;;;14.42;49.35;99471.14;232930;1223;139206;-64
2022/05/20 02:11:38;;;;;;;20.10;7.00;;;;;;;14.39;49.34;99469.16;232695;1223;138588;-64
2022/05/20 02:17:03;;;;;;;22.90;7.50;;;;;;;14.34;49.67;99473.29;232681;1222;138957;-63
2022/05/20 02:22:14;;;;;;;18.00;7.30;;;;;;;14.30;49.59;99470.63;232819;1222;138973;-62
2022/05/20 02:27:44;;;;;;;22.80;8.00;;;;;;;14.25;49.76;99466.48;232845;1222;138230;-64
2022/05/20 02:33:08;;;;;;;20.90;8.40;;;;;;;14.23;49.88;99471.25;232588;1223;138888;-64
2022/05/20 02:38:25;;;;;;;20.10;7.90;;;;;;;14.22;49.87;99469.86;232916;1222;140515;-64
2022/05/20 02:43:33;;;;;;;19.50;7.60;;;;;;;14.18;49.87;99459.46;233042;1223;138621;-66
2022/05/20 02:48:40;;;;;;;21.90;8.40;;;;;;;14.14;50.01;99456.74;232516;1222;138764;-65
2022/05/20 02:54:15;;;;;;;23.10;8.80;;;;;;;14.03;49.88;99450.48;232557;1223;138646;-63
2022/05/20 03:05:05;;;;;;;20.00;8.00;;;;;;;13.97;50.10;99455.37;232913;1222;139378;-66
2022/05/20 03:10:18;;;;;;;22.10;7.90;;;;;;;14.00;50.14;99452.86;232616;1223;138723;-61
2022/05/20 03:15:26;;;;;;;12.30;5.10;;;;;;;14.02;50.06;99448.27;232697;1223;139272;-63
2022/05/20 03:20:38;;;;;;;12.50;4.20;;;;;;;14.25;49.33;99451.14;232731;1222;139068;-65
2022/05/20 03:25:49;;;;;;;9.00;3.70;;;;;;;14.49;48.55;99438.89;233111;1221;138560;-65
2022/05/20 03:30:55;;;;;;;10.10;3.80;;;;;;;14.79;47.71;99440.88;232877;1222;138431;-62
2022/05/20 03:36:06;;;;;;;8.40;4.10;;;;;;;14.96;47.13;99434.05;232686;1221;138761;-70
2022/05/20 03:41:21;;;;;;;9.80;3.50;;;;;;;15.19;46.34;99431.66;232720;1222;138476;-64
2022/05/20 03:46:48;;;;;;;11.80;3.80;;;;;;;15.35;45.86;99430.80;232718;1223;139045;-66
2022/05/20 03:51:57;;;;;;;10.50;3.70;;;;;;;15.52;45.47;99427.00;232906;1223;138951;-64
2022/05/20 03:57:15;;;;;;;8.30;3.20;;;;;;;15.64;45.00;99422.15;232831;1223;138950;-65
2022/05/20 04:02:23;;;;;;;11.10;3.10;;;;;;;15.79;44.59;99425.81;232835;1222;138255;-65
2022/05/20 04:07:32;;;;;;;7.80;2.80;;;;;;;15.95;44.13;99425.50;232994;1222;138760;-65
2022/05/20 04:12:57;;;;;;;7.50;2.60;;;;;;;16.14;43.47;99434.23;232787;1223;138970;-64
2022/05/20 04:18:05;;;;;;;6.90;3.20;;;;;;;16.27;43.01;99428.15;232876;1222;139401;-63
2022/05/20 04:23:25;;;;;;;7.70;3.00;;;;;;;16.43;42.61;99427.30;232972;1222;138743;-68
2022/05/20 04:28:39;;;;;;;10.50;3.30;;;;;;;16.56;42.36;99426.20;232954;1222;138486;-65
2022/05/20 04:33:46;;;;;;;7.40;3.00;;;;;;;16.71;42.14;99423.95;232895;1222;138972;-66
2022/05/20 04:38:58;;;;;;;10.10;3.60;;;;;;;16.82;41.88;99421.81;232723;1223;140747;-67
2022/05/20 04:49:31;;;;;;;8.60;3.20;;;;;;;17.00;41.53;99416.74;232841;1223;138496;-68
2022/05/20 04:54:51;;;;;;;14.90;6.80;;;;;;;17.12;41.30;99420.06;232745;1222;138834;-66
2022/05/20 05:00:18;;;;;;;9.40;3.50;;;;;;;17.24;41.34;99420.29;232975;1222;138847;-68
2022/05/20 05:05:30;;;;;;;9.50;3.90;;;;;;;17.39;41.16;99419.40;232757;1222;139316;-66
2022/05/20 05:10:48;;;;;;;48.90;31.00;;;;;;;17.46;41.03;99424.19;232879;1222;138590;-66
2022/05/20 05:16:00;;;;;;;13.40;5.40;;;;;;;17.47;41.22;99413.17;232715;1222;139353;-67
2022/05/20 05:21:07;;;;;;;12.40;4.30;;;;;;;17.47;40.99;99413.16;232525;1223;139332;-66
2022/05/20 05:26:24;;;;;;;15.50;4.60;;;;;;;17.42;40.96;99416.62;232572;1222;139257;-63
2022/05/20 05:31:32;;;;;;;15.20;4.20;;;;;;;17.50;41.22;99423.16;232762;1222;139316;-63
2022/05/20 05:36:39;;;;;;;80.40;63.30;;;;;;;17.73;42.41;99414.36;231662;1223;138462;-63
2022/05/20 05:41:45;;;;;;;;;;;;;;;18.14;42.56;99417.88;232562;1223;139178;-64
2022/05/20 05:46:49;;;;;;;13.70;4.30;;;;;;;18.27;41.36;99428.02;232893;1223;125799;-65
2022/05/20 05:52:04;;;;;;;17.10;4.20;;;;;;;18.29;40.66;99425.36;232749;1222;138424;-66
2022/05/20 05:57:11;;;;;;;19.30;7.30;;;;;;;18.37;40.58;99421.42;232784;1222;139247;-67
2022/05/20 06:02:24;;;;;;;14.60;4.00;;;;;;;18.48;40.62;99412.69;232603;1223;139176;-62
2022/05/20 06:07:30;;;;;;;15.00;3.40;;;;;;;18.63;40.33;99419.77;232828;1222;138844;-64
2022/05/20 06:12:40;;;;;;;12.20;3.70;;;;;;;18.77;40.14;99413.02;232733;1222;140047;-65
2022/05/20 06:17:53;;;;;;;8.80;2.70;;;;;;;18.93;39.89;99412.79;232440;1223;138808;-62
2022/05/20 06:23:04;;;;;;;15.60;9.50;;;;;;;19.08;39.43;99426.56;232823;1222;139771;-63
2022/05/20 06:28:22;;;;;;;7.00;2.50;;;;;;;19.24;39.35;99417.54;232704;1222;139459;-63
2022/05/20 06:33:35;;;;;;;6.20;2.60;;;;;;;19.44;38.95;99424.09;232608;1223;138716;-62
2022/05/20 06:44:10;;;;;;;7.00;2.80;;;;;;;19.79;38.92;99416.96;232753;1222;139178;-63
2022/05/20 06:49:25;;;;;;;8.70;2.40;;;;;;;19.93;38.73;99408.59;232976;1223;138867;-62
2022/05/20 06:54:41;;;;;;;6.30;2.40;;;;;;;20.16;38.71;99402.05;232400;1223;138351;-61
2022/05/20 07:00:05;;;;;;;13.60;2.50;;;;;;;20.33;38.64;99388.67;232632;1222;138995;-60
2022/05/20 07:05:10;;;;;;;10.10;2.30;;;;;;;20.61;38.62;99392.16;232714;1222;138815;-62
2022/05/20 07:10:20;;;;;;;69.20;48.30;;;;;;;20.85;38.72;99391.25;232781;1223;139047;-62
2022/05/20 07:15:32;;;;;;;7.70;2.60;;;;;;;21.23;38.72;99391.21;232695;1223;138878;-62
2022/05/20 07:20:47;;;;;;;5.70;2.10;;;;;;;21.50;38.13;99395.86;230819;1223;138535;-63
2022/05/20 07:26:06;;;;;;;7.90;2.10;;;;;;;21.72;37.79;99401.77;230465;1221;138988;-60
2022/05/20 07:31:20;;;;;;;10.70;6.00;;;;;;;21.89;37.78;99396.77;232849;1222;138810;-63
2022/05/20 07:36:25;;;;;;;8.90;2.40;;;;;;;22.11;37.34;99411.09;232626;1222;138546;-60
2022/05/20 07:41:32;;;;;;;;;;;;;;;22.23;37.07;99410.44;232341;1224;138535;-63
2022/05/20 07:46:51;;;;;;;8.70;2.30;;;;;;;22.36;37.08;99407.79;232433;1223;125610;-63
2022/05/20 07:52:08;;;;;;;14.20;2.60;;;;;;;22.44;36.97;99421.09;232891;1223;138811;-61
2022/05/20 07:57:14;;;;;;;20.60;10.30;;;;;;;22.51;36.79;99414.31;232659;1223;140359;-62
2022/05/20 08:02:29;;;;;;;12.30;2.60;;;;;;;22.56;36.82;99417.63;232613;1223;139537;-61
2022/05/20 08:07:46;;;;;;;7.00;2.40;;;;;;;22.65;36.65;99425.55;232768;1223;138474;-61
2022/05/20 08:12:56;;;;;;;12.10;2.50;;;;;;;22.62;36.72;99426.59;232548;1224;138720;-61
2022/05/20 08:18:01;;;;;;;67.00;46.80;;;;;;;22.57;36.73;99432.89;232812;1223;139463;-63
2022/05/20 08:23:14;;;;;;;22.30;7.30;;;;;;;22.51;36.89;99433.70;233122;1221;139404;-64
2022/05/20 08:28:39;;;;;;;14.90;3.60;;;;;;;22.50;37.05;99441.96;232783;1221;140000;-63
2022/05/20 08:33:52;;;;;;;12.50;3.20;;;;;;;22.49;37.36;99437.12;232938;1222;139073;-64
2022/05/20 08:39:03;;;;;;;10.80;3.50;;;;;;;22.47;37.58;99439.79;233055;1221;162026;-64
2022/05/20 08:44:12;;;;;;;;;;;;;;;22.51;37.80;99437.17;232904;1221;138831;-64
2022/05/20 08:49:29;;;;;;;44.80;32.00;;;;;;;22.54;37.88;99426.83;233113;1222;125206;-63
2022/05/20 08:54:38;;;;;;;17.80;7.30;;;;;;;22.64;38.22;99429.80;233002;1221;138884;-64
2022/05/20 09:00:17;;;;;;;11.80;2.70;;;;;;;22.75;38.35;99426.86;233159;1221;139244;-63
2022/05/20 09:05:29;;;;;;;13.80;2.60;;;;;;;22.88;38.44;99428.09;232948;1220;139883;-63
2022/05/20 09:10:35;;;;;;;8.20;2.50;;;;;;;22.93;38.58;99426.48;233087;1220;138672;-63
2022/05/20 09:15:46;;;;;;;13.50;2.40;;;;;;;23.04;38.76;99425.12;233116;1221;138950;-64
2022/05/20 09:20:52;;;;;;;61.50;48.90;;;;;;;23.17;38.62;99425.26;232983;1222;138695;-61
2022/05/20 09:26:10;;;;;;;6.30;3.10;;;;;;;23.25;38.77;99415.36;233077;1222;139644;-61
2022/05/20 09:31:28;;;;;;;9.40;2.60;;;;;;;23.41;38.61;99409.78;233162;1222;141699;-62
2022/05/20 09:37:16;;;;;;;4.80;2.40;;;;;;;23.59;38.49;99402.31;233043;1221;138716;-62
2022/05/20 09:42:20;;;;;;;4.90;1.80;;;;;;;23.85;38.21;99393.33;232800;1221;138643;-62
2022/05/20 09:47:32;;;;;;;9.80;2.10;;;;;;;24.00;37.98;99379.98;233028;1221;138813;-62
2022/05/20 09:52:47;;;;;;;8.80;7.20;;;;;;;24.18;37.88;99368.55;232227;1214;138810;-60
2022/05/20 09:57:53;;;;;;;8.80;3.00;;;;;;;24.35;37.77;99357.13;232753;1222;138840;-61
2022/05/20 10:03:02;;;;;;;7.30;2.10;;;;;;;24.47;37.75;99355.79;232977;1222;138970;-61
2022/05/20 10:08:39;;;;;;;8.80;2.50;;;;;;;24.66;37.52;99344.89;232759;1222;152933;-62
2022/05/20 10:14:09;;;;;;;9.70;2.20;;;;;;;24.88;37.48;99345.44;232629;1222;139344;-62
2022/05/20 10:19:54;;;;;;;8.40;1.80;;;;;;;25.13;37.43;99335.27;232944;1222;138342;-63
2022/05/20 10:25:12;;;;;;;60.90;43.90;;;;;;;25.33;37.24;99326.19;232750;1222;138936;-61
2022/05/20 10:36:19;;;;;;;10.10;2.90;;;;;;;25.65;36.88;99317.17;233009;1222;138711;-60
2022/05/20 10:42:06;;;;;;;6.30;2.40;;;;;;;25.89;36.68;99316.48;232888;1222;138980;-59
2022/05/20 10:53:04;;;;;;;4.70;1.80;;;;;;;26.20;36.27;99312.14;232723;1222;138878;-62
2022/05/20 10:58:10;;;;;;;5.00;2.10;;;;;;;26.34;35.97;99314.97;232885;1222;138582;-63
2022/05/20 11:03:45;;;;;;;3.80;1.90;;;;;;;26.49;35.95;99321.49;232774;1223;138826;-62
2022/05/20 11:09:03;;;;;;;6.90;1.90;;;;;;;26.61;35.71;99310.72;232834;1222;139089;-62
2022/05/20 11:14:40;;;;;;;8.20;2.10;;;;;;;26.78;35.73;99314.62;233032;1222;139643;-63
2022/05/20 11:19:51;;;;;;;11.10;2.20;;;;;;;26.93;35.66;99304.19;232688;1223;141256;-63
2022/05/20 11:25:00;;;;;;;4.80;2.40;;;;;;;27.11;35.45;99304.46;232184;1223;139786;-63
2022/05/20 11:30:15;;;;;;;3.90;2.10;;;;;;;27.24;35.35;99289.81;232744;1223;140030;-62
2022/05/20 11:35:39;;;;;;;6.30;2.30;;;;;;;27.40;35.02;99281.66;232638;1223;139218;-63
2022/05/20 11:41:04;;;;;;;2.80;1.70;;;;;;;27.60;35.07;99271.91;232509;1223;138860;-62
2022/05/20 11:46:44;;;;;;;11.70;2.10;;;;;;;27.75;34.84;99263.41;232665;1224;140182;-62
2022/05/20 11:52:08;;;;;;;7.90;3.10;;;;;;;27.92;34.60;99261.90;232398;1224;139006;-62
2022/05/20 11:57:20;;;;;;;9.60;2.20;;;;;;;27.98;34.41;99245.80;232666;1222;139858;-63
2022/05/20 12:02:26;;;;;;;7.70;1.90;;;;;;;28.15;34.46;99229.73;233174;1222;139364;-63
2022/05/20 12:07:37;;;;;;;5.30;1.80;;;;;;;28.32;34.33;99227.81;232801;1222;139886;-62
2022/05/20 12:12:53;;;;;;;6.40;2.20;;;;;;;28.43;34.02;99238.58;232690;1224;139017;-62
2022/05/20 12:17:56;;;;;;;5.30;3.30;;;;;;;28.42;33.86;99232.50;232881;1222;139000;-62
2022/05/20 12:28:32;;;;;;;6.60;2.10;;;;;;;28.54;33.83;99236.20;232446;1223;138786;-63
2022/05/20 12:34:00;;;;;;;7.30;1.80;;;;;;;28.60;33.77;99233.55;232777;1222;138663;-62
2022/05/20 12:39:06;;;;;;;5.70;1.60;;;;;;;28.60;33.68;99236.90;232929;1224;139046;-63
2022/05/20 12:44:15;;;;;;;5.00;1.60;;;;;;;28.63;33.53;99229.56;232914;1223;139409;-63
2022/05/20 12:49:21;;;;;;;8.20;1.90;;;;;;;28.69;33.52;99225.21;232799;1224;139113;-63
2022/05/20 12:54:26;;;;;;;2.90;1.80;;;;;;;28.73;33.45;99217.54;233229;1223;139161;-62
2022/05/20 12:59:30;;;;;;;4.40;1.60;;;;;;;28.81;33.39;99206.73;232914;1222;140457;-63
2022/05/20 13:04:58;;;;;;;7.80;1.60;;;;;;;28.87;33.15;99214.02;232535;1223;140672;-63
2022/05/20 13:10:33;;;;;;;5.60;1.60;;;;;;;28.89;33.28;99205.56;232807;1222;138892;-64
2022/05/20 13:15:48;;;;;;;4.60;1.80;;;;;;;29.05;33.18;99196.74;232827;1222;138706;-64
2022/05/20 13:20:58;;;;;;;2.30;1.40;;;;;;;29.22;33.09;99197.62;231255;1223;139460;-63
2022/05/20 13:26:46;;;;;;;6.30;1.40;;;;;;;29.30;32.72;99181.25;232906;1222;138544;-62
2022/05/20 13:32:31;;;;;;;4.40;1.50;;;;;;;29.50;33.01;99178.56;232966;1222;138814;-62
2022/05/20 13:37:51;;;;;;;2.80;1.50;;;;;;;29.58;32.55;99175.41;232482;1224;139499;-63
2022/05/20 13:42:57;;;;;;;4.10;1.50;;;;;;;29.67;32.67;99166.39;232649;1223;138527;-63
2022/05/20 13:53:32;;;;;;;5.70;1.60;;;;;;;30.00;32.01;99148.54;232624;1224;139060;-63
2022/05/20 13:58:39;;;;;;;4.80;1.70;;;;;;;30.07;31.84;99148.45;232991;1222;139522;-62
2022/05/20 14:03:48;;;;;;;5.60;1.80;;;;;;;30.09;31.83;99147.44;232853;1222;139289;-61
2022/05/20 14:08:59;;;;;;;8.50;1.60;;;;;;;30.08;31.83;99140.73;232754;1222;139381;-63
2022/05/20 14:14:05;;;;;;;6.60;1.70;;;;;;;30.05;31.70;99135.45;232843;1222;138876;-63
2022/05/20 14:19:54;;;;;;;4.40;1.70;;;;;;;29.98;31.60;99134.98;232751;1223;138791;-64
2022/05/20 14:25:01;;;;;;;3.80;1.40;;;;;;;29.89;31.64;99121.17;231887;1226;139212;-64
2022/05/20 14:30:22;;;;;;;6.00;1.70;;;;;;;29.84;31.77;99109.00;232634;1223;138526;-63
2022/05/20 14:35:40;;;;;;;6.60;2.90;;;;;;;29.76;31.78;99111.19;232821;1222;138847;-63
2022/05/20 14:40:43;;;;;;;5.50;1.90;;;;;;;29.62;31.56;99107.15;232872;1221;141196;-62
2022/05/20 14:45:55;;;;;;;5.10;1.70;;;;;;;29.43;31.43;99099.21;232807;1223;139848;-61
2022/05/20 14:50:58;;;;;;;4.70;2.10;;;;;;;29.20;31.68;99099.26;233030;1222;139315;-62
2022/05/20 14:56:02;;;;;;;3.70;1.70;;;;;;;29.02;32.07;99086.25;233209;1222;139110;-62
2022/05/20 15:01:11;;;;;;;6.00;1.90;;;;;;;28.87;32.04;99073.73;232805;1222;138732;-62
2022/05/20 15:06:22;;;;;;;4.80;2.00;;;;;;;28.73;32.44;99080.75;232802;1222;138695;-62
2022/05/20 15:11:34;;;;;;;6.00;2.20;;;;;;;28.57;32.47;99067.48;232841;1222;140468;-61
2022/05/20 15:16:37;;;;;;;5.40;2.00;;;;;;;28.42;32.59;99068.05;232785;1222;140948;-63
2022/05/20 15:21:41;;;;;;;5.60;1.90;;;;;;;28.23;32.74;99056.05;232755;1222;138929;-63
2022/05/20 15:26:45;;;;;;;3.80;2.20;;;;;;;28.17;33.07;99061.25;233084;1222;138902;-63
2022/05/20 15:37:15;;;;;;;8.10;2.30;;;;;;;28.00;33.37;99061.08;232718;1222;138851;-64
2022/05/20 15:42:21;;;;;;;5.40;2.20;;;;;;;27.93;33.60;99053.73;232784;1222;138492;-63
2022/05/20 15:47:29;;;;;;;4.90;1.90;;;;;;;27.87;33.59;99052.78;232796;1222;138308;-63
2022/05/20 15:52:35;;;;;;;5.80;1.90;;;;;;;27.78;33.74;99046.96;232741;1222;139268;-64
2022/05/20 15:57:40;;;;;;;4.60;1.90;;;;;;;27.70;33.89;99041.13;232903;1222;138388;-63
2022/05/20 16:02:44;;;;;;;7.80;2.10;;;;;;;27.64;34.09;99031.86;232820;1222;139177;-63
2022/05/20 16:08:00;;;;;;;3.60;1.70;;;;;;;27.64;34.22;99025.45;232922;1222;138962;-64
2022/05/20 16:13:05;;;;;;;3.10;1.60;;;;;;;27.61;34.36;99016.23;232971;1222;138754;-63
2022/05/20 16:18:08;;;;;;;5.10;2.00;;;;;;;27.55;34.31;99013.95;232623;1224;140473;-63
2022/05/20 16:23:19;;;;;;;8.20;2.00;;;;;;;27.50;34.41;99011.84;232868;1222;138813;-63
2022/05/20 16:28:22;;;;;;;4.90;1.90;;;;;;;27.45;34.44;99004.50;232967;1222;138496;-64
2022/05/20 16:33:26;;;;;;;5.20;2.00;;;;;;;27.44;34.62;99004.82;232815;1222;138853;-63
2022/05/20 16:38:30;;;;;;;4.70;2.10;;;;;;;27.40;34.75;98993.08;233117;1221;139514;-62
2022/05/20 16:43:34;;;;;;;5.40;1.80;;;;;;;27.41;34.78;98990.98;232799;1222;139297;-63
2022/05/20 16:48:39;;;;;;;7.60;2.40;;;;;;;27.43;34.77;98987.08;232809;1222;138868;-63
2022/05/20 16:53:47;;;;;;;7.20;2.10;;;;;;;27.40;34.83;98977.44;232971;1221;141051;-64
2022/05/20 17:04:17;;;;;;;5.00;2.30;;;;;;;27.37;34.88;98974.05;232947;1222;138786;-64
2022/05/20 17:09:20;;;;;;;7.10;2.50;;;;;;;27.28;35.03;98962.52;232970;1222;138854;-63
2022/05/20 17:14:27;;;;;;;5.10;2.00;;;;;;;27.27;34.98;98956.91;233102;1222;138980;-63
2022/05/20 17:19:31;;;;;;;4.60;1.80;;;;;;;27.21;35.14;98947.73;232963;1222;138541;-64
2022/05/20 17:24:38;;;;;;;4.70;2.00;;;;;;;27.17;35.20;98941.23;232880;1222;138542;-63
2022/05/20 17:29:43;;;;;;;6.70;2.30;;;;;;;27.16;35.13;98936.19;232913;1222;139031;-64
2022/05/20 17:34:47;;;;;;;6.60;1.90;;;;;;;27.14;35.28;98931.41;232812;1222;138880;-64
2022/05/20 17:39:56;;;;;;;5.40;2.10;;;;;;;27.13;35.34;98932.56;232704;1221;138366;-64
2022/05/20 17:44:59;;;;;;;4.10;2.40;;;;;;;27.10;35.44;98927.75;232964;1222;139057;-64
2022/05/20 17:50:03;;;;;;;5.70;2.00;;;;;;;27.08;35.51;98926.43;233146;1222;138756;-63
2022/05/20 17:55:07;;;;;;;5.40;2.30;;;;;;;27.08;35.57;98929.06;232936;1222;138971;-64
2022/05/20 18:00:12;;;;;;;6.50;2.00;;;;;;;27.04;35.60;98927.75;232991;1222;138690;-63
2022/05/20 18:05:16;;;;;;;10.00;2.20;;;;;;;27.01;35.70;98927.06;232612;1223;139018;-63
2022/05/20 18:10:19;;;;;;;6.30;2.40;;;;;;;26.96;35.69;98922.51;232898;1222;139429;-61
2022/05/20 18:15:22;;;;;;;4.20;2.30;;;;;;;26.83;35.64;98913.96;232899;1222;139436;-61
2022/05/20 18:20:25;;;;;;;7.10;2.50;;;;;;;26.72;35.89;98914.61;232727;1222;138850;-60
2022/05/20 18:25:28;;;;;;;6.20;2.10;;;;;;;26.62;36.03;98911.86;232347;1223;140019;-61
2022/05/20 18:30:33;;;;;;;6.00;2.50;;;;;;;26.52;36.13;98910.22;232825;1222;139518;-61
2022/05/20 18:41:24;;;;;;;5.40;2.40;;;;;;;26.31;36.62;98894.77;231874;1225;138515;-60
2022/05/20 18:46:27;;;;;;;6.80;2.40;;;;;;;26.22;36.83;98884.47;232487;1222;138457;-60
2022/05/20 18:51:30;;;;;;;5.40;2.30;;;;;;;26.16;36.97;98885.64;232726;1222;141239;-60
2022/05/20 18:56:33;;;;;;;8.90;2.80;;;;;;;26.08;37.16;98873.20;233056;1222;138611;-62
2022/05/20 19:01:37;;;;;;;40.00;32.70;;;;;;;26.01;37.47;98868.99;232955;1222;138824;-62
2022/05/20 19:06:40;;;;;;;9.10;3.70;;;;;;;25.94;37.62;98860.82;232720;1221;139293;-61
2022/05/20 19:11:43;;;;;;;10.00;3.70;;;;;;;25.89;37.99;98852.80;232957;1222;139184;-61
2022/05/20 19:16:46;;;;;;;9.00;3.40;;;;;;;25.83;38.19;98857.88;232912;1222;139462;-62
2022/05/20 19:21:51;;;;;;;10.80;3.70;;;;;;;25.75;38.20;98847.30;232792;1222;140193;-62
2022/05/20 19:26:54;;;;;;;6.40;3.50;;;;;;;25.70;38.46;98845.21;232933;1222;138583;-62
2022/05/20 19:31:58;;;;;;;6.90;2.90;;;;;;;25.63;38.72;98837.84;232855;1222;138812;-61
2022/05/20 19:37:01;;;;;;;6.90;3.70;;;;;;;25.57;38.83;98815.48;232730;1222;138608;-63
2022/05/20 19:42:04;;;;;;;10.60;3.70;;;;;;;25.50;38.98;98808.71;232764;1222;139298;-63
2022/05/20 19:47:07;;;;;;;15.70;3.70;;;;;;;25.44;39.19;98800.20;232993;1222;138929;-61
2022/05/20 19:52:11;;;;;;;74.40;64.30;;;;;;;25.40;39.45;98795.92;232792;1222;139720;-64
2022/05/20 20:02:35;;;;;;;12.20;6.60;;;;;;;25.32;39.76;98785.96;232339;1222;138914;-61
2022/05/20 20:07:39;;;;;;;14.80;5.30;;;;;;;25.18;39.95;98769.45;232725;1222;139639;-63
2022/05/20 20:12:42;;;;;;;22.20;16.90;;;;;;;25.02;40.34;98765.41;232898;1222;138879;-63
2022/05/20 20:17:45;;;;;;;147.90;132.50;;;;;;;24.79;40.74;98768.86;233062;1222;139235;-64
2022/05/20 20:28:10;;;;;;;14.90;6.70;;;;;;;24.36;41.57;98762.21;232853;1222;139151;-61
2022/05/20 20:33:13;;;;;;;14.60;5.10;;;;;;;24.21;41.96;98759.63;232666;1222;139357;-62
2022/05/20 20:38:17;;;;;;;9.50;4.60;;;;;;;24.06;42.29;98749.83;233030;1222;139144;-63
2022/05/20 20:43:20;;;;;;;16.20;5.30;;;;;;;23.89;42.63;98743.00;232547;1222;139226;-61
2022/05/20 20:48:23;;;;;;;15.60;5.70;;;;;;;23.74;43.04;98743.53;232933;1222;139525;-62
2022/05/20 20:53:26;;;;;;;17.00;5.10;;;;;;;23.61;43.39;98755.81;232699;1222;138694;-61
2022/05/20 20:58:30;;;;;;;14.50;5.30;;;;;;;23.48;43.76;98754.98;232801;1222;139290;-63
2022/05/20 21:03:33;;;;;;;14.30;5.00;;;;;;;23.36;44.04;98747.72;232191;1222;139195;-62
2022/05/20 21:08:37;;;;;;;15.50;5.80;;;;;;;23.25;44.36;98741.11;232823;1222;139372;-63
2022/05/20 21:13:41;;;;;;;14.70;5.20;;;;;;;23.13;44.66;98748.45;232424;1224;138921;-60
2022/05/20 21:18:46;;;;;;;15.40;4.90;;;;;;;23.01;45.05;98737.03;232577;1222;138750;-60
2022/05/20 21:23:49;;;;;;;14.50;5.10;;;;;;;23.07;45.10;98748.63;232764;1220;139095;-63
2022/05/20 21:28:52;;;;;;;10.80;4.90;;;;;;;23.15;45.32;98748.45;232954;1222;140083;-60
2022/05/20 21:33:55;;;;;;;12.40;5.20;;;;;;;23.09;45.56;98740.84;232659;1222;138652;-60
2022/05/20 21:39:01;;;;;;;13.70;4.90;;;;;;;22.93;45.77;98727.69;233097;1222;139150;-62
2022/05/20 21:44:07;;;;;;;11.00;4.90;;;;;;;22.80;46.06;98712.20;232618;1222;139354;-64
2022/05/20 21:49:12;;;;;;;12.90;5.50;;;;;;;22.69;46.35;98712.61;232671;1222;138864;-61
2022/05/20 21:54:16;;;;;;;16.80;5.30;;;;;;;22.55;46.59;98695.10;232595;1222;139676;-61
2022/05/20 21:59:19;;;;;;;18.90;5.90;;;;;;;22.45;46.83;98698.21;232731;1222;139226;-62
2022/05/20 22:09:45;;;;;;;12.20;5.00;;;;;;;22.30;47.43;98683.39;233074;1220;139008;-61
2022/05/20 22:14:48;;;;;;;8.30;4.30;;;;;;;22.39;47.60;98676.17;233172;1222;139168;-62
2022/05/20 22:19:53;;;;;;;9.20;4.80;;;;;;;22.47;47.47;98667.86;233054;1222;139321;-62
2022/05/20 22:24:58;;;;;;;;;;;;;;;22.59;47.34;98657.36;232934;1221;138307;-63
2022/05/20 22:30:03;;;;;;;9.90;5.50;;;;;;;22.68;47.31;98639.48;232959;1222;125269;-63
2022/05/20 22:35:07;;;;;;;;;;;;;;;22.68;47.40;98628.22;233124;1221;139618;-64
2022/05/20 22:40:13;;;;;;;11.10;5.20;;;;;;;22.60;47.35;98613.07;232875;1222;126939;-61
2022/05/20 22:45:19;;;;;;;9.10;5.10;;;;;;;22.51;47.58;98597.77;232863;1222;139131;-61
2022/05/20 22:50:22;;;;;;;13.30;4.80;;;;;;;22.38;47.64;98595.36;232903;1222;138580;-62
2022/05/20 23:00:48;;;;;;;12.80;5.00;;;;;;;22.19;48.02;98586.95;233011;1221;141087;-62
2022/05/20 23:05:51;;;;;;;11.80;5.00;;;;;;;22.11;48.17;98573.48;232833;1222;139302;-62
2022/05/20 23:11:01;;;;;;;10.50;4.90;;;;;;;22.01;48.39;98562.92;232686;1222;138975;-63
2022/05/20 23:16:05;;;;;;;10.20;5.00;;;;;;;22.02;48.62;98570.47;232729;1222;139157;-63
2022/05/20 23:21:10;;;;;;;6.60;4.20;;;;;;;22.15;48.50;98557.20;232793;1222;138668;-63
2022/05/20 23:26:14;;;;;;;8.50;4.20;;;;;;;22.31;48.22;98556.56;232865;1222;138946;-62
2022/05/20 23:31:20;;;;;;;12.40;4.30;;;;;;;22.45;48.03;98599.41;232880;1222;140443;-62
2022/05/20 23:36:44;;;;;;;7.10;3.70;;;;;;;22.57;47.61;98592.70;232741;1222;138683;-63
2022/05/20 23:41:46;;;;;;;7.70;3.80;;;;;;;22.65;47.47;98573.83;232837;1222;139037;-62
2022/05/20 23:46:49;;;;;;;7.70;4.20;;;;;;;22.72;47.42;98565.44;232745;1222;138832;-59
2022/05/20 23:51:53;;;;;;;7.70;3.70;;;;;;;22.79;47.13;98567.23;233166;1221;138774;-62
2022/05/20 23:57:08;;;;;;;8.30;3.40;;;;;;;22.81;46.94;98559.37;232917;1222;138893;-62
